sensor_id;sensor_type;location;lat;lon;timestamp;temperature;humidity
80192;SHT31;69513;51.990;5.704;2023-05-27T00:00:35;13.5;53.7
80192;SHT31;69513;51.990;5.704;2023-05-27T00:03:06;13.5;53.9
80192;SHT31;69513;51.990;5.704;2023-05-27T00:05:36;13.4;53.9
80192;SHT31;69513;51.990;5.704;2023-05-27T00:08:08;13.4;54.1
80192;SHT31;69513;51.990;5.704;2023-05-27T00:10:38;13.4;54.1
80192;SHT31;69513;51.990;5.704;2023-05-27T00:13:08;13.4;54.2
80192;SHT31;69513;51.990;5.704;2023-05-27T00:15:40;13.3;54.4
80192;SHT31;69513;51.990;5.704;2023-05-27T00:18:11;13.3;54.4
80192;SHT31;69513;51.990;5.704;2023-05-27T00:20:41;13.3;54.6
80192;SHT31;69513;51.990;5.704;2023-05-27T00:23:11;13.2;55.0
80192;SHT31;69513;51.990;5.704;2023-05-27T00:25:40;13.2;54.9
80192;SHT31;69513;51.990;5.704;2023-05-27T00:28:10;13.2;54.9
80192;SHT31;69513;51.990;5.704;2023-05-27T00:30:40;13.2;55.1
80192;SHT31;69513;51.990;5.704;2023-05-27T00:33:10;13.1;55.5
80192;SHT31;69513;51.990;5.704;2023-05-27T00:35:39;13.1;55.6
80192;SHT31;69513;51.990;5.704;2023-05-27T00:38:09;13.1;55.5
80192;SHT31;69513;51.990;5.704;2023-05-27T00:40:39;13.1;55.4
80192;SHT31;69513;51.990;5.704;2023-05-27T00:43:10;13.0;55.6
80192;SHT31;69513;51.990;5.704;2023-05-27T00:45:39;13.0;55.6
80192;SHT31;69513;51.990;5.704;2023-05-27T00:48:10;13.0;55.9
80192;SHT31;69513;51.990;5.704;2023-05-27T00:50:40;12.9;56.0
80192;SHT31;69513;51.990;5.704;2023-05-27T00:53:10;12.9;56.1
80192;SHT31;69513;51.990;5.704;2023-05-27T00:55:41;12.9;56.2
80192;SHT31;69513;51.990;5.704;2023-05-27T00:58:13;12.9;56.2
80192;SHT31;69513;51.990;5.704;2023-05-27T01:00:44;12.8;56.3
80192;SHT31;69513;51.990;5.704;2023-05-27T01:03:14;12.8;56.4
80192;SHT31;69513;51.990;5.704;2023-05-27T01:05:46;12.8;56.2
80192;SHT31;69513;51.990;5.704;2023-05-27T01:08:28;12.8;56.4
80192;SHT31;69513;51.990;5.704;2023-05-27T01:11:00;12.7;56.5
80192;SHT31;69513;51.990;5.704;2023-05-27T01:13:35;12.7;56.4
80192;SHT31;69513;51.990;5.704;2023-05-27T01:16:13;12.7;56.5
80192;SHT31;69513;51.990;5.704;2023-05-27T01:18:48;12.7;56.7
80192;SHT31;69513;51.990;5.704;2023-05-27T01:21:22;12.6;56.8
80192;SHT31;69513;51.990;5.704;2023-05-27T01:23:53;12.6;57.1
80192;SHT31;69513;51.990;5.704;2023-05-27T01:26:23;12.6;57.2
80192;SHT31;69513;51.990;5.704;2023-05-27T01:28:53;12.6;57.2
80192;SHT31;69513;51.990;5.704;2023-05-27T01:31:34;12.5;57.0
80192;SHT31;69513;51.990;5.704;2023-05-27T01:34:08;12.5;57.5
80192;SHT31;69513;51.990;5.704;2023-05-27T01:36:45;12.5;57.4
80192;SHT31;69513;51.990;5.704;2023-05-27T01:39:18;12.4;57.6
80192;SHT31;69513;51.990;5.704;2023-05-27T01:41:49;12.4;57.6
80192;SHT31;69513;51.990;5.704;2023-05-27T01:44:21;12.4;57.7
80192;SHT31;69513;51.990;5.704;2023-05-27T01:46:57;12.4;57.6
80192;SHT31;69513;51.990;5.704;2023-05-27T01:49:30;12.4;57.6
80192;SHT31;69513;51.990;5.704;2023-05-27T01:52:01;12.3;57.9
80192;SHT31;69513;51.990;5.704;2023-05-27T01:54:32;12.3;57.8
80192;SHT31;69513;51.990;5.704;2023-05-27T01:57:03;12.3;57.9
80192;SHT31;69513;51.990;5.704;2023-05-27T01:59:33;12.3;58.1
80192;SHT31;69513;51.990;5.704;2023-05-27T02:02:04;12.2;58.2
80192;SHT31;69513;51.990;5.704;2023-05-27T02:04:33;12.2;58.4
80192;SHT31;69513;51.990;5.704;2023-05-27T02:07:05;12.2;58.3
80192;SHT31;69513;51.990;5.704;2023-05-27T02:09:35;12.1;58.4
80192;SHT31;69513;51.990;5.704;2023-05-27T02:12:09;12.1;58.6
80192;SHT31;69513;51.990;5.704;2023-05-27T02:14:39;12.1;58.8
80192;SHT31;69513;51.990;5.704;2023-05-27T02:17:10;12.1;58.8
80192;SHT31;69513;51.990;5.704;2023-05-27T02:19:43;12.1;58.9
80192;SHT31;69513;51.990;5.704;2023-05-27T02:22:15;12.0;58.8
80192;SHT31;69513;51.990;5.704;2023-05-27T02:24:45;12.0;58.9
80192;SHT31;69513;51.990;5.704;2023-05-27T02:27:14;12.0;58.9
80192;SHT31;69513;51.990;5.704;2023-05-27T02:29:44;12.0;59.0
80192;SHT31;69513;51.990;5.704;2023-05-27T02:32:14;11.9;59.1
80192;SHT31;69513;51.990;5.704;2023-05-27T02:34:45;11.9;59.2
80192;SHT31;69513;51.990;5.704;2023-05-27T02:37:15;11.9;59.0
80192;SHT31;69513;51.990;5.704;2023-05-27T02:39:45;11.9;59.2
80192;SHT31;69513;51.990;5.704;2023-05-27T02:42:14;11.9;59.2
80192;SHT31;69513;51.990;5.704;2023-05-27T02:44:44;11.9;59.2
80192;SHT31;69513;51.990;5.704;2023-05-27T02:47:13;11.8;59.2
80192;SHT31;69513;51.990;5.704;2023-05-27T02:49:43;11.8;59.2
80192;SHT31;69513;51.990;5.704;2023-05-27T02:52:12;11.8;59.3
80192;SHT31;69513;51.990;5.704;2023-05-27T02:54:43;11.8;59.2
80192;SHT31;69513;51.990;5.704;2023-05-27T02:57:12;11.8;59.4
80192;SHT31;69513;51.990;5.704;2023-05-27T02:59:42;11.7;59.5
80192;SHT31;69513;51.990;5.704;2023-05-27T03:02:11;11.7;59.7
80192;SHT31;69513;51.990;5.704;2023-05-27T03:04:43;11.6;59.8
80192;SHT31;69513;51.990;5.704;2023-05-27T03:07:14;11.6;59.9
80192;SHT31;69513;51.990;5.704;2023-05-27T03:09:43;11.6;60.1
80192;SHT31;69513;51.990;5.704;2023-05-27T03:12:13;11.6;60.4
80192;SHT31;69513;51.990;5.704;2023-05-27T03:14:44;11.5;60.4
80192;SHT31;69513;51.990;5.704;2023-05-27T03:17:13;11.5;60.3
80192;SHT31;69513;51.990;5.704;2023-05-27T03:19:43;11.5;60.3
80192;SHT31;69513;51.990;5.704;2023-05-27T03:22:13;11.4;60.5
80192;SHT31;69513;51.990;5.704;2023-05-27T03:24:43;11.4;60.3
80192;SHT31;69513;51.990;5.704;2023-05-27T03:27:15;11.4;60.6
80192;SHT31;69513;51.990;5.704;2023-05-27T03:29:44;11.4;60.7
80192;SHT31;69513;51.990;5.704;2023-05-27T03:32:15;11.4;60.8
80192;SHT31;69513;51.990;5.704;2023-05-27T03:34:46;11.3;61.0
80192;SHT31;69513;51.990;5.704;2023-05-27T03:37:16;11.3;61.1
80192;SHT31;69513;51.990;5.704;2023-05-27T03:39:45;11.3;61.3
80192;SHT31;69513;51.990;5.704;2023-05-27T03:42:18;11.3;61.1
80192;SHT31;69513;51.990;5.704;2023-05-27T03:44:48;11.3;61.1
80192;SHT31;69513;51.990;5.704;2023-05-27T03:47:22;11.3;61.2
80192;SHT31;69513;51.990;5.704;2023-05-27T03:49:54;11.3;61.2
80192;SHT31;69513;51.990;5.704;2023-05-27T03:52:23;11.3;61.0
80192;SHT31;69513;51.990;5.704;2023-05-27T03:54:53;11.2;60.9
80192;SHT31;69513;51.990;5.704;2023-05-27T03:57:22;11.2;61.1
80192;SHT31;69513;51.990;5.704;2023-05-27T03:59:52;11.2;61.1
80192;SHT31;69513;51.990;5.704;2023-05-27T04:02:22;11.2;61.2
80192;SHT31;69513;51.990;5.704;2023-05-27T04:04:53;11.2;61.5
80192;SHT31;69513;51.990;5.704;2023-05-27T04:07:22;11.1;61.6
80192;SHT31;69513;51.990;5.704;2023-05-27T04:09:55;11.1;61.4
80192;SHT31;69513;51.990;5.704;2023-05-27T04:12:24;11.1;61.7
80192;SHT31;69513;51.990;5.704;2023-05-27T04:14:54;11.1;61.9
80192;SHT31;69513;51.990;5.704;2023-05-27T04:17:25;11.1;61.8
80192;SHT31;69513;51.990;5.704;2023-05-27T04:19:55;11.1;61.9
80192;SHT31;69513;51.990;5.704;2023-05-27T04:22:26;11.1;62.0
80192;SHT31;69513;51.990;5.704;2023-05-27T04:24:56;11.1;62.3
80192;SHT31;69513;51.990;5.704;2023-05-27T04:27:25;11.1;62.4
80192;SHT31;69513;51.990;5.704;2023-05-27T04:29:55;11.1;62.5
80192;SHT31;69513;51.990;5.704;2023-05-27T04:32:27;11.1;62.6
80192;SHT31;69513;51.990;5.704;2023-05-27T04:35:01;11.1;62.7
80192;SHT31;69513;51.990;5.704;2023-05-27T04:37:30;11.1;62.8
80192;SHT31;69513;51.990;5.704;2023-05-27T04:40:01;11.1;63.0
80192;SHT31;69513;51.990;5.704;2023-05-27T04:42:34;11.1;63.1
80192;SHT31;69513;51.990;5.704;2023-05-27T04:45:10;11.1;63.0
80192;SHT31;69513;51.990;5.704;2023-05-27T04:47:41;11.1;63.0
80192;SHT31;69513;51.990;5.704;2023-05-27T04:50:12;11.1;62.9
80192;SHT31;69513;51.990;5.704;2023-05-27T04:52:43;11.1;63.3
80192;SHT31;69513;51.990;5.704;2023-05-27T04:55:13;11.1;63.2
80192;SHT31;69513;51.990;5.704;2023-05-27T04:57:43;11.1;63.2
80192;SHT31;69513;51.990;5.704;2023-05-27T05:00:17;11.1;63.3
80192;SHT31;69513;51.990;5.704;2023-05-27T05:02:57;11.1;63.5
80192;SHT31;69513;51.990;5.704;2023-05-27T05:05:30;11.1;63.3
80192;SHT31;69513;51.990;5.704;2023-05-27T05:08:00;11.2;63.5
80192;SHT31;69513;51.990;5.704;2023-05-27T05:10:32;11.2;63.5
80192;SHT31;69513;51.990;5.704;2023-05-27T05:13:04;11.2;63.5
80192;SHT31;69513;51.990;5.704;2023-05-27T05:15:34;11.2;63.4
80192;SHT31;69513;51.990;5.704;2023-05-27T05:18:04;11.2;63.7
80192;SHT31;69513;51.990;5.704;2023-05-27T05:20:34;11.2;64.0
80192;SHT31;69513;51.990;5.704;2023-05-27T05:23:04;11.2;64.2
80192;SHT31;69513;51.990;5.704;2023-05-27T05:25:34;11.3;63.9
80192;SHT31;69513;51.990;5.704;2023-05-27T05:28:06;11.3;64.4
80192;SHT31;69513;51.990;5.704;2023-05-27T05:30:38;11.3;64.2
80192;SHT31;69513;51.990;5.704;2023-05-27T05:33:08;11.3;64.6
80192;SHT31;69513;51.990;5.704;2023-05-27T05:35:37;11.4;64.6
80192;SHT31;69513;51.990;5.704;2023-05-27T05:38:08;11.4;64.8
80192;SHT31;69513;51.990;5.704;2023-05-27T05:40:38;11.4;65.1
80192;SHT31;69513;51.990;5.704;2023-05-27T05:43:08;11.5;65.1
80192;SHT31;69513;51.990;5.704;2023-05-27T05:45:37;11.5;65.2
80192;SHT31;69513;51.990;5.704;2023-05-27T05:48:08;11.5;65.4
80192;SHT31;69513;51.990;5.704;2023-05-27T05:50:38;11.6;65.5
80192;SHT31;69513;51.990;5.704;2023-05-27T05:53:07;11.6;65.9
80192;SHT31;69513;51.990;5.704;2023-05-27T05:55:37;11.6;66.1
80192;SHT31;69513;51.990;5.704;2023-05-27T05:58:10;11.7;66.2
80192;SHT31;69513;51.990;5.704;2023-05-27T06:00:39;11.7;66.3
80192;SHT31;69513;51.990;5.704;2023-05-27T06:03:09;11.8;66.5
80192;SHT31;69513;51.990;5.704;2023-05-27T06:05:38;11.8;66.7
80192;SHT31;69513;51.990;5.704;2023-05-27T06:08:08;11.8;66.7
80192;SHT31;69513;51.990;5.704;2023-05-27T06:10:37;11.9;66.6
80192;SHT31;69513;51.990;5.704;2023-05-27T06:13:07;11.9;66.3
80192;SHT31;69513;51.990;5.704;2023-05-27T06:15:39;12.0;66.4
80192;SHT31;69513;51.990;5.704;2023-05-27T06:18:08;12.1;66.4
80192;SHT31;69513;51.990;5.704;2023-05-27T06:20:39;12.1;66.4
80192;SHT31;69513;51.990;5.704;2023-05-27T06:23:08;12.2;66.6
80192;SHT31;69513;51.990;5.704;2023-05-27T06:25:38;12.2;66.0
80192;SHT31;69513;51.990;5.704;2023-05-27T06:28:09;12.3;66.2
80192;SHT31;69513;51.990;5.704;2023-05-27T06:30:39;12.4;65.6
80192;SHT31;69513;51.990;5.704;2023-05-27T06:33:11;12.4;66.3
80192;SHT31;69513;51.990;5.704;2023-05-27T06:35:41;12.5;65.7
80192;SHT31;69513;51.990;5.704;2023-05-27T06:38:11;12.5;65.9
80192;SHT31;69513;51.990;5.704;2023-05-27T06:40:42;12.6;65.8
80192;SHT31;69513;51.990;5.704;2023-05-27T06:43:12;12.7;65.4
80192;SHT31;69513;51.990;5.704;2023-05-27T06:45:42;12.7;65.0
80192;SHT31;69513;51.990;5.704;2023-05-27T06:48:11;12.8;64.5
80192;SHT31;69513;51.990;5.704;2023-05-27T06:50:41;12.8;64.1
80192;SHT31;69513;51.990;5.704;2023-05-27T06:53:11;12.9;64.6
80192;SHT31;69513;51.990;5.704;2023-05-27T06:55:41;12.9;64.5
80192;SHT31;69513;51.990;5.704;2023-05-27T06:58:12;13.0;64.1
80192;SHT31;69513;51.990;5.704;2023-05-27T07:00:42;13.0;63.8
80192;SHT31;69513;51.990;5.704;2023-05-27T07:03:12;13.1;64.3
80192;SHT31;69513;51.990;5.704;2023-05-27T07:05:42;13.1;64.2
80192;SHT31;69513;51.990;5.704;2023-05-27T07:08:13;13.2;64.6
80192;SHT31;69513;51.990;5.704;2023-05-27T07:10:43;13.2;63.7
80192;SHT31;69513;51.990;5.704;2023-05-27T07:13:13;13.3;62.7
80192;SHT31;69513;51.990;5.704;2023-05-27T07:15:44;13.3;62.8
80192;SHT31;69513;51.990;5.704;2023-05-27T07:18:15;13.4;63.5
80192;SHT31;69513;51.990;5.704;2023-05-27T07:20:47;13.4;62.7
80192;SHT31;69513;51.990;5.704;2023-05-27T07:23:18;13.4;62.5
80192;SHT31;69513;51.990;5.704;2023-05-27T07:25:47;13.5;62.4
80192;SHT31;69513;51.990;5.704;2023-05-27T07:28:17;13.5;62.2
80192;SHT31;69513;51.990;5.704;2023-05-27T07:30:47;13.6;62.9
80192;SHT31;69513;51.990;5.704;2023-05-27T07:33:17;13.6;62.2
80192;SHT31;69513;51.990;5.704;2023-05-27T07:35:48;13.7;62.3
80192;SHT31;69513;51.990;5.704;2023-05-27T07:38:17;13.8;61.6
80192;SHT31;69513;51.990;5.704;2023-05-27T07:40:48;13.8;60.9
80192;SHT31;69513;51.990;5.704;2023-05-27T07:43:18;13.9;60.5
80192;SHT31;69513;51.990;5.704;2023-05-27T07:45:48;13.9;60.5
80192;SHT31;69513;51.990;5.704;2023-05-27T07:48:17;14.0;61.5
80192;SHT31;69513;51.990;5.704;2023-05-27T07:50:47;14.1;62.0
80192;SHT31;69513;51.990;5.704;2023-05-27T07:53:17;14.1;61.3
80192;SHT31;69513;51.990;5.704;2023-05-27T07:55:47;14.2;60.7
80192;SHT31;69513;51.990;5.704;2023-05-27T07:58:17;14.3;59.7
80192;SHT31;69513;51.990;5.704;2023-05-27T08:00:49;14.3;60.2
80192;SHT31;69513;51.990;5.704;2023-05-27T08:03:19;14.4;59.8
80192;SHT31;69513;51.990;5.704;2023-05-27T08:05:50;14.5;60.2
80192;SHT31;69513;51.990;5.704;2023-05-27T08:08:19;14.6;59.6
80192;SHT31;69513;51.990;5.704;2023-05-27T08:10:49;14.6;58.4
80192;SHT31;69513;51.990;5.704;2023-05-27T08:13:19;14.7;58.8
80192;SHT31;69513;51.990;5.704;2023-05-27T08:15:50;14.8;59.0
80192;SHT31;69513;51.990;5.704;2023-05-27T08:18:19;14.9;59.0
80192;SHT31;69513;51.990;5.704;2023-05-27T08:20:49;15.0;57.8
80192;SHT31;69513;51.990;5.704;2023-05-27T08:23:19;15.0;58.1
80192;SHT31;69513;51.990;5.704;2023-05-27T08:25:49;15.1;58.6
80192;SHT31;69513;51.990;5.704;2023-05-27T08:28:18;15.2;57.3
80192;SHT31;69513;51.990;5.704;2023-05-27T08:30:49;15.3;56.7
80192;SHT31;69513;51.990;5.704;2023-05-27T08:33:18;15.3;57.1
80192;SHT31;69513;51.990;5.704;2023-05-27T08:35:49;15.4;57.3
80192;SHT31;69513;51.990;5.704;2023-05-27T08:38:18;15.5;56.4
80192;SHT31;69513;51.990;5.704;2023-05-27T08:40:49;15.6;56.9
80192;SHT31;69513;51.990;5.704;2023-05-27T08:43:19;15.6;56.7
80192;SHT31;69513;51.990;5.704;2023-05-27T08:45:50;15.7;56.2
80192;SHT31;69513;51.990;5.704;2023-05-27T08:48:20;15.8;55.5
80192;SHT31;69513;51.990;5.704;2023-05-27T08:50:50;15.8;56.5
80192;SHT31;69513;51.990;5.704;2023-05-27T08:53:23;15.9;55.0
80192;SHT31;69513;51.990;5.704;2023-05-27T08:55:54;16.0;56.4
80192;SHT31;69513;51.990;5.704;2023-05-27T08:58:32;16.0;55.3
80192;SHT31;69513;51.990;5.704;2023-05-27T09:01:02;16.1;54.7
80192;SHT31;69513;51.990;5.704;2023-05-27T09:03:33;16.2;55.2
80192;SHT31;69513;51.990;5.704;2023-05-27T09:06:04;16.3;54.7
80192;SHT31;69513;51.990;5.704;2023-05-27T09:08:37;16.3;55.0
80192;SHT31;69513;51.990;5.704;2023-05-27T09:11:06;16.4;53.2
80192;SHT31;69513;51.990;5.704;2023-05-27T09:13:42;16.5;53.5
80192;SHT31;69513;51.990;5.704;2023-05-27T09:16:14;16.6;51.4
80192;SHT31;69513;51.990;5.704;2023-05-27T09:18:47;16.6;51.2
80192;SHT31;69513;51.990;5.704;2023-05-27T09:21:19;16.7;51.8
80192;SHT31;69513;51.990;5.704;2023-05-27T09:23:55;16.7;51.3
80192;SHT31;69513;51.990;5.704;2023-05-27T09:26:27;16.8;51.0
80192;SHT31;69513;51.990;5.704;2023-05-27T09:29:01;16.9;50.8
80192;SHT31;69513;51.990;5.704;2023-05-27T09:31:32;16.9;52.0
80192;SHT31;69513;51.990;5.704;2023-05-27T09:34:13;17.0;52.7
80192;SHT31;69513;51.990;5.704;2023-05-27T09:36:46;17.1;51.5
80192;SHT31;69513;51.990;5.704;2023-05-27T09:39:21;17.2;51.3
80192;SHT31;69513;51.990;5.704;2023-05-27T09:41:56;17.2;51.2
80192;SHT31;69513;51.990;5.704;2023-05-27T09:44:31;17.3;50.4
80192;SHT31;69513;51.990;5.704;2023-05-27T09:47:10;17.4;50.7
80192;SHT31;69513;51.990;5.704;2023-05-27T09:49:45;17.5;50.3
80192;SHT31;69513;51.990;5.704;2023-05-27T09:52:19;17.6;50.2
80192;SHT31;69513;51.990;5.704;2023-05-27T09:54:51;17.7;49.0
80192;SHT31;69513;51.990;5.704;2023-05-27T09:57:22;17.7;48.1
80192;SHT31;69513;51.990;5.704;2023-05-27T09:59:52;17.8;49.3
80192;SHT31;69513;51.990;5.704;2023-05-27T10:02:24;17.9;47.8
80192;SHT31;69513;51.990;5.704;2023-05-27T10:04:58;18.0;48.1
80192;SHT31;69513;51.990;5.704;2023-05-27T10:07:34;18.0;47.6
80192;SHT31;69513;51.990;5.704;2023-05-27T10:10:09;18.1;48.6
80192;SHT31;69513;51.990;5.704;2023-05-27T10:12:43;18.2;48.2
80192;SHT31;69513;51.990;5.704;2023-05-27T10:15:23;18.2;49.0
80192;SHT31;69513;51.990;5.704;2023-05-27T10:17:56;18.3;46.6
80192;SHT31;69513;51.990;5.704;2023-05-27T10:20:32;18.4;47.4
80192;SHT31;69513;51.990;5.704;2023-05-27T10:23:14;18.5;48.0
80192;SHT31;69513;51.990;5.704;2023-05-27T10:25:49;18.6;48.7
80192;SHT31;69513;51.990;5.704;2023-05-27T10:28:29;18.7;48.8
80192;SHT31;69513;51.990;5.704;2023-05-27T10:31:10;18.8;47.5
80192;SHT31;69513;51.990;5.704;2023-05-27T10:33:43;18.9;48.0
80192;SHT31;69513;51.990;5.704;2023-05-27T10:36:15;19.0;47.0
80192;SHT31;69513;51.990;5.704;2023-05-27T10:38:58;19.1;46.0
80192;SHT31;69513;51.990;5.704;2023-05-27T10:41:41;19.2;46.1
80192;SHT31;69513;51.990;5.704;2023-05-27T10:44:11;19.4;44.9
80192;SHT31;69513;51.990;5.704;2023-05-27T10:46:43;19.5;43.9
80192;SHT31;69513;51.990;5.704;2023-05-27T10:49:24;19.5;44.4
80192;SHT31;69513;51.990;5.704;2023-05-27T10:51:56;19.6;45.0
80192;SHT31;69513;51.990;5.704;2023-05-27T10:54:29;19.7;44.3
80192;SHT31;69513;51.990;5.704;2023-05-27T10:57:02;19.8;44.3
80192;SHT31;69513;51.990;5.704;2023-05-27T10:59:40;19.9;43.7
80192;SHT31;69513;51.990;5.704;2023-05-27T11:02:14;20.0;44.4
80192;SHT31;69513;51.990;5.704;2023-05-27T11:04:44;20.1;43.6
80192;SHT31;69513;51.990;5.704;2023-05-27T11:07:20;20.2;43.1
80192;SHT31;69513;51.990;5.704;2023-05-27T11:09:54;20.3;43.1
80192;SHT31;69513;51.990;5.704;2023-05-27T11:12:25;20.4;42.2
80192;SHT31;69513;51.990;5.704;2023-05-27T11:14:56;20.5;41.6
80192;SHT31;69513;51.990;5.704;2023-05-27T11:17:26;20.6;42.1
80192;SHT31;69513;51.990;5.704;2023-05-27T11:19:59;20.8;42.2
80192;SHT31;69513;51.990;5.704;2023-05-27T11:22:30;20.9;41.4
80192;SHT31;69513;51.990;5.704;2023-05-27T11:25:03;21.0;42.1
80192;SHT31;69513;51.990;5.704;2023-05-27T11:27:39;21.1;42.2
80192;SHT31;69513;51.990;5.704;2023-05-27T11:30:12;21.1;41.9
80192;SHT31;69513;51.990;5.704;2023-05-27T11:32:42;21.3;42.7
80192;SHT31;69513;51.990;5.704;2023-05-27T11:35:16;21.4;42.2
80192;SHT31;69513;51.990;5.704;2023-05-27T11:37:50;21.5;41.5
80192;SHT31;69513;51.990;5.704;2023-05-27T11:40:24;21.6;41.7
80192;SHT31;69513;51.990;5.704;2023-05-27T11:43:02;21.7;41.3
80192;SHT31;69513;51.990;5.704;2023-05-27T11:45:36;21.8;41.2
80192;SHT31;69513;51.990;5.704;2023-05-27T11:48:09;21.9;39.9
80192;SHT31;69513;51.990;5.704;2023-05-27T11:50:39;22.0;39.6
80192;SHT31;69513;51.990;5.704;2023-05-27T11:53:08;22.2;39.8
80192;SHT31;69513;51.990;5.704;2023-05-27T11:55:38;22.3;40.9
80192;SHT31;69513;51.990;5.704;2023-05-27T11:58:08;22.4;39.7
80192;SHT31;69513;51.990;5.704;2023-05-27T12:00:39;22.5;38.2
80192;SHT31;69513;51.990;5.704;2023-05-27T12:03:08;22.6;39.1
80192;SHT31;69513;51.990;5.704;2023-05-27T12:05:39;22.7;38.8
80192;SHT31;69513;51.990;5.704;2023-05-27T12:08:08;22.8;39.6
80192;SHT31;69513;51.990;5.704;2023-05-27T12:10:39;23.0;39.7
80192;SHT31;69513;51.990;5.704;2023-05-27T12:13:08;23.1;39.3
80192;SHT31;69513;51.990;5.704;2023-05-27T12:15:40;23.2;38.8
80192;SHT31;69513;51.990;5.704;2023-05-27T12:18:10;23.3;39.5
80192;SHT31;69513;51.990;5.704;2023-05-27T12:20:39;23.5;39.6
80192;SHT31;69513;51.990;5.704;2023-05-27T12:23:09;23.6;38.4
80192;SHT31;69513;51.990;5.704;2023-05-27T12:25:40;23.8;38.6
80192;SHT31;69513;51.990;5.704;2023-05-27T12:28:11;23.9;38.1
80192;SHT31;69513;51.990;5.704;2023-05-27T12:30:42;24.0;39.5
80192;SHT31;69513;51.990;5.704;2023-05-27T12:33:14;24.2;38.9
80192;SHT31;69513;51.990;5.704;2023-05-27T12:35:45;24.3;37.4
80192;SHT31;69513;51.990;5.704;2023-05-27T12:38:14;24.4;36.9
80192;SHT31;69513;51.990;5.704;2023-05-27T12:40:46;24.5;36.9
80192;SHT31;69513;51.990;5.704;2023-05-27T12:43:17;24.6;36.8
80192;SHT31;69513;51.990;5.704;2023-05-27T12:45:48;24.7;33.6
80192;SHT31;69513;51.990;5.704;2023-05-27T12:48:22;24.8;34.4
80192;SHT31;69513;51.990;5.704;2023-05-27T12:50:53;24.8;34.9
80192;SHT31;69513;51.990;5.704;2023-05-27T12:53:23;24.9;34.7
80192;SHT31;69513;51.990;5.704;2023-05-27T12:55:53;25.0;35.2
80192;SHT31;69513;51.990;5.704;2023-05-27T12:58:23;25.1;35.9
80192;SHT31;69513;51.990;5.704;2023-05-27T13:00:55;25.3;34.9
80192;SHT31;69513;51.990;5.704;2023-05-27T13:03:25;25.4;32.8
80192;SHT31;69513;51.990;5.704;2023-05-27T13:05:56;25.5;33.7
80192;SHT31;69513;51.990;5.704;2023-05-27T13:08:28;25.6;34.3
80192;SHT31;69513;51.990;5.704;2023-05-27T13:10:58;25.8;32.7
80192;SHT31;69513;51.990;5.704;2023-05-27T13:13:28;25.9;33.9
80192;SHT31;69513;51.990;5.704;2023-05-27T13:15:58;26.1;31.6
80192;SHT31;69513;51.990;5.704;2023-05-27T13:18:28;26.2;31.4
80192;SHT31;69513;51.990;5.704;2023-05-27T13:20:58;26.3;32.0
80192;SHT31;69513;51.990;5.704;2023-05-27T13:23:28;26.4;31.9
80192;SHT31;69513;51.990;5.704;2023-05-27T13:25:59;26.6;32.1
80192;SHT31;69513;51.990;5.704;2023-05-27T13:28:29;26.7;30.4
80192;SHT31;69513;51.990;5.704;2023-05-27T13:31:00;26.9;31.3
80192;SHT31;69513;51.990;5.704;2023-05-27T13:33:31;27.0;31.6
80192;SHT31;69513;51.990;5.704;2023-05-27T13:36:02;27.2;31.0
80192;SHT31;69513;51.990;5.704;2023-05-27T13:38:34;27.4;28.9
80192;SHT31;69513;51.990;5.704;2023-05-27T13:41:04;27.6;30.8
80192;SHT31;69513;51.990;5.704;2023-05-27T13:43:35;27.8;29.5
80192;SHT31;69513;51.990;5.704;2023-05-27T13:46:04;28.0;29.5
80192;SHT31;69513;51.990;5.704;2023-05-27T13:48:34;28.1;29.7
80192;SHT31;69513;51.990;5.704;2023-05-27T13:51:03;28.3;28.1
80192;SHT31;69513;51.990;5.704;2023-05-27T13:53:34;28.4;28.8
80192;SHT31;69513;51.990;5.704;2023-05-27T13:56:04;28.5;28.9
80192;SHT31;69513;51.990;5.704;2023-05-27T13:58:35;28.7;29.6
80192;SHT31;69513;51.990;5.704;2023-05-27T14:01:04;28.8;29.1
80192;SHT31;69513;51.990;5.704;2023-05-27T14:03:34;28.9;27.1
80192;SHT31;69513;51.990;5.704;2023-05-27T14:06:04;29.0;28.7
80192;SHT31;69513;51.990;5.704;2023-05-27T14:08:34;29.1;28.9
80192;SHT31;69513;51.990;5.704;2023-05-27T14:11:04;29.2;28.6
80192;SHT31;69513;51.990;5.704;2023-05-27T14:13:35;29.3;28.3
80192;SHT31;69513;51.990;5.704;2023-05-27T14:16:06;29.5;29.1
80192;SHT31;69513;51.990;5.704;2023-05-27T14:18:36;29.6;28.0
80192;SHT31;69513;51.990;5.704;2023-05-27T14:21:05;29.6;27.8
80192;SHT31;69513;51.990;5.704;2023-05-27T14:23:35;29.7;27.8
80192;SHT31;69513;51.990;5.704;2023-05-27T14:26:05;29.6;25.7
80192;SHT31;69513;51.990;5.704;2023-05-27T14:28:35;29.5;26.5
80192;SHT31;69513;51.990;5.704;2023-05-27T14:31:06;29.3;25.9
80192;SHT31;69513;51.990;5.704;2023-05-27T14:33:35;29.1;26.5
80192;SHT31;69513;51.990;5.704;2023-05-27T14:36:06;28.9;27.0
80192;SHT31;69513;51.990;5.704;2023-05-27T14:38:36;28.7;28.4
80192;SHT31;69513;51.990;5.704;2023-05-27T14:41:08;28.6;29.1
80192;SHT31;69513;51.990;5.704;2023-05-27T14:43:38;28.5;29.0
80192;SHT31;69513;51.990;5.704;2023-05-27T14:46:08;28.4;28.0
80192;SHT31;69513;51.990;5.704;2023-05-27T14:48:38;28.3;28.0
80192;SHT31;69513;51.990;5.704;2023-05-27T14:51:08;28.2;27.4
80192;SHT31;69513;51.990;5.704;2023-05-27T14:53:37;28.1;28.1
80192;SHT31;69513;51.990;5.704;2023-05-27T14:56:08;28.0;29.8
80192;SHT31;69513;51.990;5.704;2023-05-27T14:58:40;28.0;30.1
80192;SHT31;69513;51.990;5.704;2023-05-27T15:01:11;28.0;28.8
80192;SHT31;69513;51.990;5.704;2023-05-27T15:03:40;28.0;28.5
80192;SHT31;69513;51.990;5.704;2023-05-27T15:06:10;28.1;27.7
80192;SHT31;69513;51.990;5.704;2023-05-27T15:08:43;28.4;28.8
80192;SHT31;69513;51.990;5.704;2023-05-27T15:11:13;28.6;28.2
80192;SHT31;69513;51.990;5.704;2023-05-27T15:13:43;29.0;28.7
80192;SHT31;69513;51.990;5.704;2023-05-27T15:16:12;29.4;28.4
80192;SHT31;69513;51.990;5.704;2023-05-27T15:18:44;29.8;27.3
80192;SHT31;69513;51.990;5.704;2023-05-27T15:21:13;30.0;27.1
80192;SHT31;69513;51.990;5.704;2023-05-27T15:23:43;30.0;26.5
80192;SHT31;69513;51.990;5.704;2023-05-27T15:26:13;30.0;25.1
80192;SHT31;69513;51.990;5.704;2023-05-27T15:28:43;29.8;25.9
80192;SHT31;69513;51.990;5.704;2023-05-27T15:31:12;29.6;27.1
80192;SHT31;69513;51.990;5.704;2023-05-27T15:33:42;29.4;26.9
80192;SHT31;69513;51.990;5.704;2023-05-27T15:36:11;29.2;26.9
80192;SHT31;69513;51.990;5.704;2023-05-27T15:38:41;29.0;26.7
80192;SHT31;69513;51.990;5.704;2023-05-27T15:41:10;28.8;28.0
80192;SHT31;69513;51.990;5.704;2023-05-27T15:43:40;28.8;28.3
80192;SHT31;69513;51.990;5.704;2023-05-27T15:46:10;28.8;26.8
80192;SHT31;69513;51.990;5.704;2023-05-27T15:48:44;28.7;26.7
80192;SHT31;69513;51.990;5.704;2023-05-27T15:51:13;28.6;28.2
80192;SHT31;69513;51.990;5.704;2023-05-27T15:53:43;28.4;26.4
80192;SHT31;69513;51.990;5.704;2023-05-27T15:56:13;28.3;28.8
80192;SHT31;69513;51.990;5.704;2023-05-27T15:58:42;28.1;27.8
80192;SHT31;69513;51.990;5.704;2023-05-27T16:01:12;28.0;28.5
80192;SHT31;69513;51.990;5.704;2023-05-27T16:03:42;27.9;27.9
80192;SHT31;69513;51.990;5.704;2023-05-27T16:06:13;27.8;28.4
80192;SHT31;69513;51.990;5.704;2023-05-27T16:08:42;27.7;29.3
80192;SHT31;69513;51.990;5.704;2023-05-27T16:11:13;27.6;28.6
80192;SHT31;69513;51.990;5.704;2023-05-27T16:13:42;27.5;28.7
80192;SHT31;69513;51.990;5.704;2023-05-27T16:16:15;27.5;29.0
80192;SHT31;69513;51.990;5.704;2023-05-27T16:18:45;27.4;29.0
80192;SHT31;69513;51.990;5.704;2023-05-27T16:21:15;27.3;28.6
80192;SHT31;69513;51.990;5.704;2023-05-27T16:23:44;27.3;29.9
80192;SHT31;69513;51.990;5.704;2023-05-27T16:26:17;27.3;30.3